Time;durP1;ratioP1;P1;durP2;ratioP2;P2;SDS_P1;SDS_P2;PMS_P1;PMS_P2;Temp;Humidity;BMP_temperature;BMP_pressure;BME280_temperature;BME280_humidity;BME280_pressure;Samples;Min_cycle;Max_cycle;Signal;HPM_P1;HPM_P2
2022/08/11 00:04:23;;;;;;;6.93;2.70;;;;;;;19.17;37.25;100470.22;10396170;28;20111;-58
2022/08/11 00:09:33;;;;;;;4.88;2.42;;;;;;;19.03;37.71;100461.78;10396230;28;20132;-58
2022/08/11 00:14:41;;;;;;;5.35;2.65;;;;;;;19.09;37.72;100463.91;10396182;28;20080;-57
2022/08/11 00:19:45;;;;;;;5.53;2.70;;;;;;;19.03;38.09;100465.25;10395797;28;20059;-58
2022/08/11 00:25:18;;;;;;;5.50;2.40;;;;;;;18.94;38.59;100460.72;10381323;28;20041;-57
2022/08/11 00:30:20;;;;;;;7.43;2.65;;;;;;;19.01;38.17;100467.16;10395948;28;20311;-58
2022/08/11 00:35:26;;;;;;;8.13;2.80;;;;;;;18.84;38.67;100470.44;10395200;28;20140;-58
2022/08/11 00:41:23;;;;;;;6.43;3.10;;;;;;;18.48;40.04;100473.56;10395034;28;20386;-58
2022/08/11 00:46:24;;;;;;;5.35;2.67;;;;;;;18.50;39.63;100474.25;10390755;28;20085;-57
2022/08/11 00:51:47;;;;;;;4.90;2.55;;;;;;;18.42;39.83;100469.59;10394393;28;20150;-57
2022/08/11 00:57:37;;;;;;;6.47;2.50;;;;;;;18.37;39.82;100471.78;10394102;28;20065;-58
2022/08/11 01:02:42;;;;;;;6.50;2.70;;;;;;;18.28;40.62;100466.44;10394080;28;20220;-57
2022/08/11 01:07:55;;;;;;;4.63;2.58;;;;;;;18.06;41.16;100471.75;10393926;28;20061;-57
2022/08/11 01:13:27;;;;;;;6.22;2.70;;;;;;;17.78;41.80;100479.31;10393808;28;20049;-58
2022/08/11 01:19:06;;;;;;;4.82;2.70;;;;;;;17.83;41.75;100481.59;10393742;28;20136;-58
2022/08/11 01:24:34;;;;;;;4.68;2.60;;;;;;;17.63;42.07;100480.53;10392838;28;20454;-58
2022/08/11 01:29:57;;;;;;;6.50;2.63;;;;;;;17.44;42.61;100483.00;10393014;28;20168;-57
2022/08/11 01:35:20;;;;;;;4.30;2.50;;;;;;;17.20;43.04;100487.50;10393150;28;20576;-58
2022/08/11 01:41:04;;;;;;;6.70;2.78;;;;;;;16.94;43.90;100502.75;10392576;28;20517;-58
2022/08/11 01:46:10;;;;;;;5.78;2.90;;;;;;;16.75;44.16;100491.09;10392746;28;20139;-58
2022/08/11 01:51:34;;;;;;;6.65;2.70;;;;;;;16.78;44.52;100491.69;10392350;28;20128;-57
2022/08/11 01:56:52;;;;;;;5.13;2.60;;;;;;;16.85;44.67;100502.63;10392485;28;20132;-58
2022/08/11 02:02:46;;;;;;;7.15;2.65;;;;;;;16.79;44.76;100489.91;10392412;28;20132;-58
2022/08/11 02:08:15;;;;;;;6.20;2.70;;;;;;;16.72;45.02;100508.00;10392133;28;20053;-57
2022/08/11 02:13:35;;;;;;;8.93;2.90;;;;;;;16.64;45.46;100499.84;10392802;28;20049;-57
2022/08/11 02:24:12;;;;;;;5.20;2.88;;;;;;;16.57;45.24;100509.16;10392393;28;20053;-58
2022/08/11 02:29:23;;;;;;;6.80;3.00;;;;;;;16.53;45.47;100506.88;10390734;28;20161;-58
2022/08/11 02:34:30;;;;;;;5.18;3.05;;;;;;;16.42;46.21;100509.44;10391839;28;20156;-58
2022/08/11 02:39:58;;;;;;;6.05;2.75;;;;;;;16.34;46.58;100509.19;10397467;28;20136;-58
2022/08/11 02:45:27;;;;;;;8.13;3.08;;;;;;;16.04;46.77;100507.84;10399952;28;20479;-58
2022/08/11 02:50:34;;;;;;;8.25;3.40;;;;;;;16.01;46.75;100510.72;10399029;28;20541;-58
2022/08/11 02:55:42;;;;;;;8.68;3.20;;;;;;;15.65;47.52;100515.16;10398971;28;20140;-58
2022/08/11 03:01:22;;;;;;;4.78;3.05;;;;;;;15.33;48.66;100507.69;10398896;28;20191;-58
2022/08/11 03:06:39;;;;;;;7.60;3.42;;;;;;;15.53;48.47;100508.94;10398654;28;20056;-57
2022/08/11 03:18:01;;;;;;;11.65;3.60;;;;;;;15.27;48.98;100505.50;10398162;28;20520;-58
2022/08/11 03:23:23;;;;;;;7.10;3.40;;;;;;;15.46;48.50;100502.41;10396874;28;20080;-57
2022/08/11 03:28:50;;;;;;;4.95;3.30;;;;;;;14.91;49.89;100502.78;10398077;28;20239;-57
2022/08/11 03:34:10;;;;;;;5.18;3.40;;;;;;;14.88;50.52;100497.72;10398041;28;20080;-58
2022/08/11 03:39:54;;;;;;;5.45;3.30;;;;;;;14.94;50.56;100501.72;10397093;28;20575;-57
2022/08/11 03:45:15;;;;;;;9.65;3.30;;;;;;;14.61;51.00;100517.19;10397555;28;20120;-57
2022/08/11 03:50:51;;;;;;;5.70;3.67;;;;;;;14.58;51.10;100510.31;10396633;28;20136;-58
2022/08/11 03:56:33;;;;;;;7.35;3.55;;;;;;;14.68;51.06;100507.91;10379178;28;20843;-58
2022/08/11 04:02:12;;;;;;;5.45;3.50;;;;;;;14.87;50.54;100505.72;10396830;28;20141;-57
2022/08/11 04:07:51;;;;;;;6.57;3.58;;;;;;;14.78;50.60;100514.25;10396817;28;20077;-57
2022/08/11 04:13:20;;;;;;;8.38;3.50;;;;;;;14.73;50.73;100511.94;10395005;28;20059;-57
2022/08/11 04:18:59;;;;;;;6.57;3.88;;;;;;;14.53;51.52;100515.88;10396111;28;20140;-58
2022/08/11 04:24:31;;;;;;;8.50;4.07;;;;;;;14.26;52.12;100528.22;10395684;28;20085;-57
2022/08/11 04:30:36;;;;;;;5.88;3.42;;;;;;;14.30;52.07;100519.19;10395584;28;20089;-57
2022/08/11 04:36:14;;;;;;;5.10;3.57;;;;;;;14.50;52.18;100517.88;10349011;28;20441;-57
2022/08/11 04:43:19;;;;;;;8.57;3.58;;;;;;;14.66;51.24;100517.69;10390149;28;20442;-57
2022/08/11 05:01:39;;;;;;;11.32;3.70;;;;;;;14.97;51.18;100517.31;10394740;28;20155;-60
2022/08/11 05:05:32;;;;;;;4.47;2.88;;;;;;;21.57;37.61;100502.91;10394232;28;20092;-58
2022/08/11 05:11:27;;;;;;;7.32;3.30;;;;;;;22.89;35.24;100501.22;10392502;28;20081;-58
2022/08/11 06:00:09;;;;;;;8.18;3.30;;;;;;;18.20;43.78;100548.31;10392311;28;20438;-57
2022/08/11 06:05:11;;;;;;;9.15;3.10;;;;;;;18.34;43.79;100548.81;10392105;28;20763;-57
2022/08/11 06:10:25;;;;;;;5.80;2.88;;;;;;;18.39;44.42;100548.47;10392801;28;20148;-57
2022/08/11 06:15:30;;;;;;;7.35;2.80;;;;;;;18.43;43.70;100549.88;10383329;28;20097;-58
2022/08/11 06:20:42;;;;;;;4.32;2.85;;;;;;;18.51;42.97;100548.28;10400548;28;20129;-57
2022/08/11 06:25:45;;;;;;;8.73;2.83;;;;;;;18.72;42.63;100548.31;10400733;28;20045;-58
2022/08/11 06:30:47;;;;;;;5.88;3.00;;;;;;;18.97;41.83;100549.75;10399751;28;20087;-58
2022/08/11 06:36:05;;;;;;;5.85;2.88;;;;;;;19.11;40.66;100552.94;10400532;28;20504;-57
2022/08/11 06:41:30;;;;;;;9.18;2.70;;;;;;;19.20;39.76;100552.13;10398362;28;20367;-57
2022/08/11 06:46:40;;;;;;;9.60;3.03;;;;;;;19.54;39.26;100542.13;10399791;28;20145;-57
2022/08/11 06:51:47;;;;;;;10.57;3.08;;;;;;;19.86;38.27;100553.44;10399671;28;20145;-58
2022/08/11 07:02:36;;;;;;;9.73;3.10;;;;;;;20.15;37.49;100545.53;10398705;28;20049;-58
2022/08/11 07:30:07;;;;;;;7.20;2.80;;;;;;;21.30;35.53;100509.03;10397694;28;20065;-58
2022/08/11 07:35:17;;;;;;;7.53;2.80;;;;;;;21.41;35.29;100511.53;10397691;28;20057;-58
2022/08/11 07:40:21;;;;;;;7.20;2.80;;;;;;;22.00;34.96;100508.41;10397065;28;20080;-58
2022/08/11 07:56:07;;;;;;;11.82;3.10;;;;;;;25.23;29.83;100489.19;10397234;28;20132;-58
2022/08/11 08:23:05;;;;;;;9.25;2.72;;;;;;;28.00;24.87;100484.69;10396429;28;20055;-58
2022/08/11 08:28:13;;;;;;;6.38;2.60;;;;;;;28.22;25.10;100479.13;10395586;28;20084;-58
2022/08/11 08:33:23;;;;;;;7.40;2.60;;;;;;;28.77;23.85;100481.06;10394492;28;20496;-58
2022/08/11 08:38:25;;;;;;;14.82;2.58;;;;;;;29.26;23.87;100475.63;10394719;28;20413;-58
2022/08/11 08:43:28;;;;;;;9.13;2.80;;;;;;;29.40;23.57;100471.19;10393997;28;20085;-58
2022/08/11 08:48:30;;;;;;;7.78;2.30;;;;;;;29.58;23.46;100458.78;10394930;28;20145;-58
2022/08/11 08:53:34;;;;;;;5.88;2.50;;;;;;;29.97;22.77;100463.50;10395098;28;20366;-58
2022/08/11 08:58:38;;;;;;;9.57;2.40;;;;;;;29.67;22.54;100462.97;10393414;28;20049;-58
2022/08/11 09:03:41;;;;;;;6.20;2.30;;;;;;;30.02;22.58;100455.63;10393939;28;20089;-58
2022/08/11 09:09:03;;;;;;;7.75;2.50;;;;;;;30.58;21.93;100450.69;10394707;28;20063;-58
2022/08/11 09:14:05;;;;;;;8.13;2.60;;;;;;;30.49;21.64;100454.66;10394167;28;20151;-58
2022/08/11 09:19:17;;;;;;;12.90;2.55;;;;;;;30.54;21.90;100450.31;10394313;28;20060;-58
2022/08/11 09:30:00;;;;;;;6.72;2.40;;;;;;;30.37;21.77;100426.59;10316443;28;20050;-58
2022/08/11 09:35:03;;;;;;;8.70;2.30;;;;;;;30.51;21.29;100428.28;10382570;28;20141;-58
2022/08/11 09:45:28;;;;;;;6.53;2.38;;;;;;;30.64;20.29;100412.09;10393030;28;20107;-58
2022/08/11 09:50:40;;;;;;;3.58;2.10;;;;;;;31.07;19.82;100407.03;10391642;28;20049;-58
2022/08/11 09:55:45;;;;;;;4.47;2.05;;;;;;;31.20;19.13;100404.28;10392819;28;20715;-58
2022/08/11 10:00:50;;;;;;;5.28;2.05;;;;;;;30.95;19.38;100395.16;10391691;28;20480;-58
2022/08/11 10:11:21;;;;;;;7.03;2.28;;;;;;;30.85;18.65;100392.09;10392920;28;20053;-58
2022/08/11 10:16:26;;;;;;;7.80;2.20;;;;;;;30.67;19.12;100379.25;10392535;28;20581;-58
2022/08/11 10:21:35;;;;;;;5.45;2.17;;;;;;;30.90;18.64;100395.00;10391899;28;20112;-58
2022/08/11 10:26:53;;;;;;;6.97;2.00;;;;;;;30.54;18.62;100393.59;10392433;28;20571;-58
2022/08/11 10:37:19;;;;;;;8.63;2.30;;;;;;;30.98;18.37;100375.88;10392054;28;20491;-58
2022/08/11 10:47:58;;;;;;;3.33;1.88;;;;;;;30.27;19.20;100370.38;10391565;28;20088;-58
2022/08/11 11:03:44;;;;;;;6.28;2.10;;;;;;;29.88;20.02;100348.75;10398884;28;20042;-58
2022/08/11 11:08:53;;;;;;;5.25;2.30;;;;;;;29.74;20.37;100349.75;10398892;28;20824;-58
2022/08/11 11:19:28;;;;;;;8.65;2.33;;;;;;;29.37;20.58;100345.72;10398354;28;20071;-59
2022/08/11 11:24:59;;;;;;;8.70;2.30;;;;;;;29.49;20.71;100335.19;10398495;28;20056;-58
2022/08/11 11:30:07;;;;;;;4.22;2.03;;;;;;;29.72;20.25;100330.28;10396902;28;20136;-58
2022/08/11 11:35:19;;;;;;;4.43;2.20;;;;;;;29.84;20.20;100317.84;10397313;28;20123;-59
2022/08/11 11:40:24;;;;;;;4.75;2.03;;;;;;;29.95;20.13;100308.31;10397773;28;20045;-58
2022/08/11 11:45:32;;;;;;;;;;;;;;;29.67;20.26;100300.38;10398219;28;20045;-58
2022/08/11 11:50:36;;;;;;;9.40;2.13;;;;;;;29.43;20.16;100298.28;10396364;28;20427;-58
2022/08/11 11:55:39;;;;;;;3.92;2.10;;;;;;;29.54;20.06;100295.00;10396755;28;20324;-58
2022/08/11 12:06:05;;;;;;;8.25;2.35;;;;;;;30.16;19.54;100276.56;10396795;28;20123;-58
2022/08/11 12:16:32;;;;;;;6.70;2.13;;;;;;;30.14;19.56;100265.13;10396359;28;20050;-58
2022/08/11 12:27:19;;;;;;;5.00;2.10;;;;;;;30.25;19.46;100263.66;10394713;28;20466;-58
2022/08/11 12:27:20;;;;;;;10.38;2.00;;;;;;;30.34;19.20;100262.38;10395637;28;20443;-58
2022/08/11 12:32:29;;;;;;;5.93;2.10;;;;;;;30.32;19.23;100259.91;10395619;28;20116;-58
2022/08/11 12:37:43;;;;;;;3.65;1.83;;;;;;;30.18;19.14;100247.50;10395315;28;20084;-58
2022/08/11 12:54:33;;;;;;;6.90;2.10;;;;;;;30.24;19.37;100227.75;10394774;28;20088;-58
2022/08/11 13:04:59;;;;;;;5.03;2.00;;;;;;;30.61;19.14;100218.09;10394497;28;20136;-58
2022/08/11 13:10:04;;;;;;;5.57;2.35;;;;;;;30.77;19.04;100216.78;10394627;28;20053;-58
2022/08/11 13:15:15;;;;;;;5.63;2.10;;;;;;;31.05;18.37;100222.69;10394233;28;20060;-58
2022/08/11 13:20:19;;;;;;;4.03;1.90;;;;;;;30.90;18.81;100209.47;10393301;28;20145;-58
2022/08/11 13:25:24;;;;;;;10.30;2.17;;;;;;;31.00;18.59;100196.34;10392815;28;20100;-58
2022/08/11 13:35:52;;;;;;;6.75;2.03;;;;;;;30.47;18.75;100195.75;10393598;28;20461;-59
2022/08/11 13:40:55;;;;;;;5.78;2.10;;;;;;;30.46;18.60;100188.69;10393442;28;20077;-58
2022/08/11 13:46:18;;;;;;;7.05;2.38;;;;;;;30.48;18.63;100180.38;10393408;28;20353;-58
2022/08/11 13:51:34;;;;;;;7.05;2.20;;;;;;;30.51;18.51;100174.56;10392471;28;20631;-58
2022/08/11 13:56:42;;;;;;;5.38;2.30;;;;;;;30.52;18.98;100176.19;10393077;28;20089;-58
2022/08/11 14:01:48;;;;;;;5.25;2.03;;;;;;;30.38;18.55;100175.41;10391587;28;20088;-59
2022/08/11 14:07:15;;;;;;;6.10;2.17;;;;;;;30.53;18.49;100165.19;10393265;28;20060;-58
2022/08/11 14:17:48;;;;;;;6.25;2.10;;;;;;;31.03;18.31;100151.81;10392543;28;20136;-58
2022/08/11 14:22:51;;;;;;;8.50;2.10;;;;;;;31.08;18.57;100133.94;10392144;28;20409;-58
2022/08/11 14:27:55;;;;;;;5.00;2.03;;;;;;;31.28;18.43;100145.41;10392733;28;20096;-58
2022/08/11 14:33:17;;;;;;;4.75;2.00;;;;;;;30.93;18.27;100138.78;10395870;28;20724;-58
2022/08/11 14:38:22;;;;;;;9.10;2.45;;;;;;;30.87;18.67;100130.72;10400182;28;20053;-58
2022/08/11 14:49:05;;;;;;;8.77;2.45;;;;;;;31.13;18.65;100114.38;10399378;28;20523;-58
2022/08/11 14:59:29;;;;;;;6.15;2.17;;;;;;;31.29;18.25;100103.81;10399405;28;20138;-58
2022/08/11 15:04:31;;;;;;;6.82;1.95;;;;;;;31.41;18.17;100106.63;10399865;28;20140;-58
2022/08/11 15:09:42;;;;;;;7.88;2.05;;;;;;;31.15;18.13;100107.69;10398729;28;20068;-58
2022/08/11 15:25:58;;;;;;;5.07;2.13;;;;;;;31.21;18.32;100089.78;10398930;28;20069;-59
2022/08/11 15:47:16;;;;;;;4.85;1.92;;;;;;;31.14;18.30;100078.19;10396959;28;20123;-58
2022/08/11 15:52:22;;;;;;;5.90;2.10;;;;;;;31.29;17.58;100074.06;10397425;28;20084;-58
2022/08/11 16:07:58;;;;;;;5.88;2.33;;;;;;;30.97;18.12;100060.81;10397003;28;20164;-58
2022/08/11 16:18:07;;;;;;;7.50;2.20;;;;;;;30.87;18.57;100049.69;10396557;28;20458;-58
2022/08/11 16:23:10;;;;;;;5.68;2.15;;;;;;;30.76;18.39;100045.84;10396135;28;20147;-58
2022/08/11 16:28:13;;;;;;;5.32;2.10;;;;;;;30.91;18.33;100045.50;10395885;28;20459;-58
2022/08/11 16:33:17;;;;;;;7.15;2.30;;;;;;;30.71;18.75;100044.84;10395814;28;20104;-58
2022/08/11 16:38:40;;;;;;;6.30;2.17;;;;;;;30.51;18.66;100035.03;10395477;28;20501;-58
2022/08/11 16:49:30;;;;;;;5.93;2.20;;;;;;;30.42;18.68;100040.84;10395238;28;20084;-58
2022/08/11 16:54:35;;;;;;;9.43;2.30;;;;;;;30.26;18.78;100038.66;10394146;28;20076;-58
2022/08/11 16:59:38;;;;;;;4.60;2.25;;;;;;;30.11;19.14;100033.53;10394437;28;20163;-58
2022/08/11 17:16:05;;;;;;;9.48;2.55;;;;;;;29.86;19.52;100027.22;10394498;28;20058;-57
2022/08/11 17:21:15;;;;;;;7.47;2.30;;;;;;;29.67;19.60;100030.81;10393753;28;20564;-58
2022/08/11 17:26:20;;;;;;;4.32;2.30;;;;;;;29.47;20.11;100022.78;10393499;28;20554;-58
2022/08/11 17:36:43;;;;;;;8.68;2.40;;;;;;;29.35;20.27;100015.53;10393446;28;20060;-58
